Airfield :
LOGIN :

Register | Disclaimer

   EN    FR    IT 

 










Legend :    VFR   Marginal VFR   IFR   Intensive IFR   Very Intensive IFR
Visi :
Ceiling :
>= 8 km
>= 3000ft
5 to 8 km
1000 to 3000 ft
1500m to 5 km
500 to 1000 ft
800 to 1500m
200 to 500 ft
< 800m
< 200 ft
Symbols :   Thunderstorms  Fog  Heavy snow  Heavy precipitations  Wind > 20 kt
SIGMETs :     Misc.  Thunderstorms  Icing  Turbulence  Mountain Waves  Volcanic Ashes






- Airport Elevation : 1300 ft
- IATA code : LIG


LFBL - Limoges

CURRENT METAR :
  • 240330Z AUTO 25006KT 210V290 3700 +RA BR SCT005/// BKN013/// BKN019/// ///TCU 14/14 Q1010 TEMPO BKN003

EXPIRED METARs :
  • 240300Z AUTO 20010KT 9999 BKN004/// OVC013/// ///TCU 15/14 Q1010 TEMPO 3000 BR BKN003
  • 240230Z AUTO 23006KT 8000 3800 -RADZ BKN006/// OVC011/// ///TCU 15/14 Q1010 TEMPO 3000 BR BKN003
  • 240200Z AUTO 22007KT 5000 -RADZ BR BKN007 OVC015 15/14 Q1010 TEMPO BKN003
  • 240130Z AUTO 23006KT 190V260 9999 BKN008/// BKN038/// OVC050/// ///TCU 15/14 Q1010 TEMPO 3000 BR BKN003
  • 240100Z AUTO 23009KT 9999 BKN009/// BKN014/// OVC038/// ///TCU 15/14 Q1011 TEMPO 3000 BR BKN003

TAF TAF LFBL
Valid from the 24 at 00:00 until the 25 at 00:00 UTC


232300Z 2400/2424 21012KT 9999 BKN020
TEMPO 2400/2409 BKN009
PROB40
TEMPO 2401/2407 3000 BR BKN003
BECMG 2411/2413 SCT025TCU
TEMPO 2413/2422 22016G28KT -SHRA BKN020TCU
PROB30
TEMPO 2416/2420 4000 -TSRA BKN013 SCT020CB
ATIS : +33 5 55 48 40 37



MET'MAP, your aeronautical weather chart ! - Copyright ORBIFLY December 2007 - Disclaimer

ORBIFLY MET'MAP TEAM :

Programming & Development : Alexandra Zaïnal
Concept & original design : Baudouin d'Aumeries
Assistance for programming : Marc-Olivier Méhu
Technical & hardware support : Manuel Goepfert

Contact : metmap@orbifly.com




SOURCES & CREDITS :

   NOAA